Time;durP1;ratioP1;P1;durP2;ratioP2;P2;SDS_P1;SDS_P2;PMS_P1;PMS_P2;Temp;Humidity;BMP_temperature;BMP_pressure;BME280_temperature;BME280_humidity;BME280_pressure;Samples;Min_cycle;Max_cycle;Signal;HPM_P1;HPM_P2
2024/03/21 00:02:21;;;;;;;24.98;11.60;;;;;;;-141.50;100.00;63355.56;5028122;28;20053;-84
2024/03/21 00:04:47;;;;;;;32.60;12.88;;;;;;;-141.50;100.00;63355.56;5016495;28;20059;-85
2024/03/21 00:07:13;;;;;;;27.55;11.98;;;;;;;-141.50;100.00;63355.56;5038800;28;20056;-86
2024/03/21 00:09:39;;;;;;;24.70;11.43;;;;;;;-141.50;100.00;63355.56;5023072;28;20071;-85
2024/03/21 00:12:06;;;;;;;26.40;11.95;;;;;;;-141.50;100.00;63355.56;5021690;28;20116;-86
2024/03/21 00:14:33;;;;;;;25.83;12.00;;;;;;;-141.50;100.00;63355.56;5037511;28;20053;-86
2024/03/21 00:16:58;;;;;;;26.77;12.38;;;;;;;-141.50;100.00;63355.56;5030768;28;20073;-87
2024/03/21 00:19:24;;;;;;;26.65;12.40;;;;;;;-141.50;100.00;63355.56;5021532;28;20112;-83
2024/03/21 00:21:50;;;;;;;28.42;12.55;;;;;;;-141.50;100.00;63355.56;5011626;28;20417;-84
2024/03/21 00:24:17;;;;;;;24.67;12.20;;;;;;;-141.50;100.00;63355.56;5032444;28;20148;-86
2024/03/21 00:26:44;;;;;;;26.60;12.50;;;;;;;-141.50;100.00;63355.56;5004609;28;20231;-86
2024/03/21 00:29:12;;;;;;;30.67;13.00;;;;;;;-141.50;100.00;63355.56;5029255;28;20111;-86
2024/03/21 00:31:39;;;;;;;29.50;12.40;;;;;;;-141.50;100.00;63355.56;5018780;28;20113;-85
2024/03/21 00:34:06;;;;;;;27.73;12.35;;;;;;;-141.50;100.00;63355.56;5020708;28;20045;-85
2024/03/21 00:36:32;;;;;;;26.15;12.32;;;;;;;-141.50;100.00;63355.56;5020592;28;20053;-86
2024/03/21 00:38:58;;;;;;;27.98;12.38;;;;;;;-141.50;100.00;63355.56;4993333;28;20160;-84
2024/03/21 00:41:24;;;;;;;24.20;11.13;;;;;;;-141.50;100.00;63355.56;5024939;28;20065;-85
2024/03/21 00:43:50;;;;;;;29.58;13.10;;;;;;;-141.50;100.00;63355.56;5024824;28;20423;-85
2024/03/21 00:46:16;;;;;;;26.02;12.07;;;;;;;-141.50;100.00;63355.56;4989212;28;20061;-85
2024/03/21 00:48:41;;;;;;;28.35;12.38;;;;;;;-141.50;100.00;63355.56;5029890;28;20105;-85
2024/03/21 00:51:09;;;;;;;28.02;12.48;;;;;;;-141.50;100.00;63355.56;5023658;28;20049;-84
2024/03/21 00:53:35;;;;;;;29.33;12.40;;;;;;;-141.50;100.00;63355.56;5030514;28;20409;-84
2024/03/21 00:56:00;;;;;;;26.52;11.80;;;;;;;-141.50;100.00;63355.56;5024941;28;20041;-86
2024/03/21 00:58:26;;;;;;;26.85;12.40;;;;;;;-141.50;100.00;63355.56;5028513;28;20057;-85
2024/03/21 01:00:52;;;;;;;23.20;11.27;;;;;;;-141.50;100.00;63355.56;5013849;28;20118;-84
2024/03/21 01:03:18;;;;;;;26.17;11.57;;;;;;;-141.50;100.00;63355.56;5027829;28;20142;-84
2024/03/21 01:05:51;;;;;;;27.60;12.65;;;;;;;-141.50;100.00;63355.56;5032759;28;20053;-83
2024/03/21 01:08:19;;;;;;;28.60;12.50;;;;;;;-141.50;100.00;63355.56;5003878;28;20037;-85
2024/03/21 01:10:51;;;;;;;28.73;12.73;;;;;;;-141.50;100.00;63355.56;5019278;28;20080;-84
2024/03/21 01:13:18;;;;;;;30.48;13.48;;;;;;;-141.50;100.00;63355.56;5038658;28;20041;-85
2024/03/21 01:15:45;;;;;;;24.70;11.55;;;;;;;-141.50;100.00;63355.56;5025303;28;20041;-83
2024/03/21 01:18:11;;;;;;;23.70;11.35;;;;;;;-141.50;100.00;63355.56;5005076;28;20045;-85
2024/03/21 01:20:40;;;;;;;27.23;12.25;;;;;;;-141.50;100.00;63355.56;5037030;28;20053;-84
2024/03/21 01:23:09;;;;;;;23.38;11.43;;;;;;;-141.50;100.00;63355.56;5033455;28;20292;-84
2024/03/21 01:25:37;;;;;;;23.85;10.57;;;;;;;-141.50;100.00;63355.56;5036583;28;20071;-86
2024/03/21 01:28:03;;;;;;;24.35;10.85;;;;;;;-141.50;100.00;63355.56;5026380;28;20156;-86
2024/03/21 01:30:31;;;;;;;20.98;10.38;;;;;;;-141.50;100.00;63355.56;5030861;28;20103;-86
2024/03/21 01:32:58;;;;;;;27.38;11.68;;;;;;;-141.50;100.00;63355.56;5023278;28;20080;-85
2024/03/21 01:35:25;;;;;;;26.95;11.38;;;;;;;-141.50;100.00;63355.56;5033050;28;20182;-86
2024/03/21 01:37:50;;;;;;;25.85;11.13;;;;;;;-141.50;100.00;63355.56;4990690;28;20633;-85
2024/03/21 01:40:17;;;;;;;20.40;11.02;;;;;;;-141.50;100.00;63355.56;5034248;28;20625;-86
2024/03/21 01:42:45;;;;;;;24.08;10.23;;;;;;;-141.50;100.00;63355.56;5016590;28;20605;-85
2024/03/21 01:45:11;;;;;;;23.00;9.70;;;;;;;-141.50;100.00;63355.56;5026596;28;20065;-86
2024/03/21 01:47:37;;;;;;;26.25;10.23;;;;;;;-141.50;100.00;63355.56;5037525;28;20067;-86
2024/03/21 01:50:04;;;;;;;21.77;10.30;;;;;;;-141.50;100.00;63355.56;5024267;28;20038;-87
2024/03/21 01:52:31;;;;;;;23.45;10.25;;;;;;;-141.50;100.00;63355.56;5033179;28;20110;-86
2024/03/21 01:54:58;;;;;;;19.35;10.05;;;;;;;-141.50;100.00;63355.56;5037891;28;20139;-86
2024/03/21 01:57:24;;;;;;;21.60;10.38;;;;;;;-141.50;100.00;63355.56;5036616;28;20106;-86
2024/03/21 01:59:51;;;;;;;23.20;10.20;;;;;;;-141.50;100.00;63355.56;5037033;28;20573;-84
2024/03/21 02:02:20;;;;;;;21.23;9.95;;;;;;;-141.50;100.00;63355.56;5009691;28;20162;-85
2024/03/21 02:04:49;;;;;;;24.73;9.68;;;;;;;-141.50;100.00;63355.56;5031595;28;20112;-85
2024/03/21 02:07:18;;;;;;;22.85;10.30;;;;;;;-141.50;100.00;63355.56;5038645;28;20051;-85
2024/03/21 02:09:45;;;;;;;20.30;9.75;;;;;;;-141.50;100.00;63355.56;5015540;28;20081;-85
2024/03/21 02:12:11;;;;;;;18.88;8.88;;;;;;;-141.50;100.00;63355.56;5026877;28;20079;-86
2024/03/21 02:14:38;;;;;;;19.20;9.82;;;;;;;-141.50;100.00;63355.56;5038953;28;20604;-86
2024/03/21 02:17:04;;;;;;;21.83;9.40;;;;;;;-141.50;100.00;63355.56;5023123;28;20131;-86
2024/03/21 02:19:31;;;;;;;22.70;9.45;;;;;;;-141.50;100.00;63355.56;5039600;28;20408;-86
2024/03/21 02:24:42;;;;;;;22.65;9.63;;;;;;;-141.50;100.00;63355.56;5034300;28;20082;-85
2024/03/21 02:27:08;;;;;;;30.75;9.23;;;;;;;-141.50;100.00;63355.56;5019982;28;20041;-85
2024/03/21 02:29:34;;;;;;;31.88;9.23;;;;;;;-141.50;100.00;63355.56;5039817;28;20037;-84
2024/03/21 02:31:59;;;;;;;25.05;10.15;;;;;;;-141.50;100.00;63355.56;5006510;28;20055;-85
2024/03/21 02:34:25;;;;;;;20.95;10.23;;;;;;;-141.50;100.00;63355.56;5035900;28;20065;-85
2024/03/21 02:36:51;;;;;;;17.25;9.07;;;;;;;-141.50;100.00;63355.56;5012631;28;20104;-86
2024/03/21 02:39:17;;;;;;;22.15;9.57;;;;;;;-141.50;100.00;63355.56;5034699;28;20041;-84
2024/03/21 02:41:43;;;;;;;22.38;9.15;;;;;;;-141.50;100.00;63355.56;5018276;28;20059;-85
2024/03/21 02:44:09;;;;;;;25.67;9.32;;;;;;;-141.50;100.00;63355.56;5020818;28;20051;-84
2024/03/21 02:46:36;;;;;;;21.38;9.57;;;;;;;-141.50;100.00;63355.56;5036015;28;20084;-85
2024/03/21 02:49:02;;;;;;;20.02;9.63;;;;;;;-141.50;100.00;63355.56;5035534;28;20048;-84
2024/03/21 02:51:28;;;;;;;22.20;9.60;;;;;;;-141.50;100.00;63355.56;5017850;28;20045;-85
2024/03/21 02:53:54;;;;;;;19.13;10.10;;;;;;;-141.50;100.00;63355.56;5012232;28;20083;-85
2024/03/21 02:56:20;;;;;;;19.50;8.43;;;;;;;-141.50;100.00;63355.56;5021080;28;20060;-85
2024/03/21 02:58:45;;;;;;;20.88;9.38;;;;;;;-141.50;100.00;63355.56;5031763;28;20049;-85
2024/03/21 03:01:11;;;;;;;18.85;8.80;;;;;;;-141.50;100.00;63355.56;5017814;28;20048;-84
2024/03/21 03:03:37;;;;;;;20.05;9.40;;;;;;;-141.50;100.00;63355.56;5011692;28;20060;-86
2024/03/21 03:06:03;;;;;;;18.98;9.27;;;;;;;-141.50;100.00;63355.56;5031024;28;20041;-86
2024/03/21 03:08:29;;;;;;;17.27;8.90;;;;;;;-141.50;100.00;63355.56;5024481;28;20037;-85
2024/03/21 03:10:57;;;;;;;19.30;9.13;;;;;;;-141.50;100.00;63355.56;5020661;28;20060;-84
2024/03/21 03:13:23;;;;;;;20.23;9.30;;;;;;;-141.50;100.00;63355.56;5031847;28;20132;-83
2024/03/21 03:15:48;;;;;;;19.63;9.23;;;;;;;-141.50;100.00;63355.56;5036206;28;20068;-85
2024/03/21 03:18:14;;;;;;;21.10;8.95;;;;;;;-141.50;100.00;63355.56;5038256;28;20076;-85
2024/03/21 03:20:40;;;;;;;19.50;8.65;;;;;;;-141.50;100.00;63355.56;5021238;28;20045;-85
2024/03/21 03:23:06;;;;;;;21.05;9.65;;;;;;;-141.50;100.00;63355.56;5019510;28;20124;-85
2024/03/21 03:25:32;;;;;;;16.58;8.68;;;;;;;-141.50;100.00;63355.56;5036529;28;20041;-85
2024/03/21 03:27:58;;;;;;;17.80;9.02;;;;;;;-141.50;100.00;63355.56;5015051;28;20111;-85
2024/03/21 03:30:24;;;;;;;16.90;8.45;;;;;;;-141.50;100.00;63355.56;5030855;28;20046;-86
2024/03/21 03:33:05;;;;;;;18.48;9.10;;;;;;;-141.50;100.00;63355.56;5030979;28;20072;-85
2024/03/21 03:35:34;;;;;;;18.25;8.63;;;;;;;-141.50;100.00;63355.56;5028939;28;20096;-86
2024/03/21 03:38:01;;;;;;;23.38;9.93;;;;;;;-141.50;100.00;63355.56;5034413;28;20075;-86
2024/03/21 03:40:27;;;;;;;17.13;8.00;;;;;;;-141.50;100.00;63355.56;5036914;28;20105;-85
2024/03/21 03:42:53;;;;;;;17.67;8.07;;;;;;;-141.50;100.00;63355.56;5033691;28;20057;-85
2024/03/21 03:45:20;;;;;;;15.98;7.57;;;;;;;-141.50;100.00;63355.56;5001735;28;20057;-85
2024/03/21 03:47:46;;;;;;;16.15;7.72;;;;;;;-141.50;100.00;63355.56;5022121;28;20037;-85
2024/03/21 03:50:11;;;;;;;17.05;7.68;;;;;;;-141.50;100.00;63355.56;5026872;28;20406;-85
2024/03/21 03:52:37;;;;;;;16.42;7.70;;;;;;;-141.50;100.00;63355.56;5027051;28;20079;-84
2024/03/21 03:55:03;;;;;;;17.67;7.65;;;;;;;-141.50;100.00;63355.56;5015529;28;20041;-85
2024/03/21 03:57:29;;;;;;;15.18;7.70;;;;;;;-141.50;100.00;63355.56;5023044;28;20710;-85
2024/03/21 03:59:55;;;;;;;29.48;7.90;;;;;;;-141.50;100.00;63355.56;5014686;28;20067;-86
2024/03/21 04:02:21;;;;;;;21.27;8.00;;;;;;;-141.50;100.00;63355.56;5038759;28;20137;-86
2024/03/21 04:04:47;;;;;;;20.60;7.43;;;;;;;-141.50;100.00;63355.56;5028316;28;20057;-86
2024/03/21 04:07:13;;;;;;;16.55;7.90;;;;;;;-141.50;100.00;63355.56;5016203;28;20045;-86
2024/03/21 04:09:39;;;;;;;14.55;7.50;;;;;;;-141.50;100.00;63355.56;5020622;28;20481;-86
2024/03/21 04:12:05;;;;;;;13.60;7.53;;;;;;;-141.50;100.00;63355.56;5030578;28;20499;-86
2024/03/21 04:14:31;;;;;;;17.33;8.25;;;;;;;-141.50;100.00;63355.56;5012818;28;20128;-85
2024/03/21 04:16:57;;;;;;;16.58;7.88;;;;;;;-141.50;100.00;63355.56;5032562;28;20059;-85
2024/03/21 04:19:23;;;;;;;15.82;7.50;;;;;;;-141.50;100.00;63355.56;5022593;28;20105;-84
2024/03/21 04:21:49;;;;;;;15.45;7.43;;;;;;;-141.50;100.00;63355.56;5032617;28;20124;-87
2024/03/21 04:24:16;;;;;;;15.13;7.20;;;;;;;-141.50;100.00;63355.56;5030206;28;20055;-85
2024/03/21 04:26:43;;;;;;;15.73;8.20;;;;;;;-141.50;100.00;63355.56;5024605;28;20060;-85
2024/03/21 04:29:09;;;;;;;15.05;6.80;;;;;;;-141.50;100.00;63355.56;5015585;28;20056;-85
2024/03/21 04:31:35;;;;;;;15.57;7.50;;;;;;;-141.50;100.00;63355.56;5009765;28;20049;-84
2024/03/21 04:34:01;;;;;;;16.52;7.43;;;;;;;-141.50;100.00;63355.56;5033510;28;20550;-85
2024/03/21 04:36:27;;;;;;;17.13;7.30;;;;;;;-141.50;100.00;63355.56;5012730;28;20041;-84
2024/03/21 04:38:53;;;;;;;34.88;8.32;;;;;;;-141.50;100.00;63355.56;5033598;28;20510;-85
2024/03/21 04:41:19;;;;;;;17.35;7.15;;;;;;;-141.50;100.00;63355.56;5009620;28;20642;-85
2024/03/21 04:43:44;;;;;;;16.40;7.57;;;;;;;-141.50;100.00;63355.56;5020735;28;20052;-86
2024/03/21 04:46:11;;;;;;;14.82;7.07;;;;;;;-141.50;100.00;63355.56;5019086;28;20105;-86
2024/03/21 04:48:39;;;;;;;17.67;7.15;;;;;;;-141.50;100.00;63355.56;4985560;28;20058;-86
2024/03/21 04:51:06;;;;;;;19.33;6.95;;;;;;;-141.50;100.00;63355.56;5002673;28;20060;-85
2024/03/21 04:53:32;;;;;;;18.27;7.25;;;;;;;-141.50;100.00;63355.56;5002573;28;20120;-85
2024/03/21 04:56:03;;;;;;;16.08;7.07;;;;;;;-141.50;100.00;63355.56;5041182;28;20196;-86
2024/03/21 04:58:29;;;;;;;12.98;6.47;;;;;;;-141.50;100.00;63355.56;5030482;28;20041;-84
2024/03/21 05:00:55;;;;;;;15.13;6.82;;;;;;;-141.50;100.00;63355.56;5002282;28;20111;-85
2024/03/21 05:03:21;;;;;;;15.77;7.10;;;;;;;-141.50;100.00;63355.56;5036163;28;20399;-85
2024/03/21 05:05:47;;;;;;;15.80;6.78;;;;;;;-141.50;100.00;63355.56;5023578;28;20060;-85
2024/03/21 05:08:12;;;;;;;14.20;6.63;;;;;;;-141.50;100.00;63355.56;5008013;28;20045;-86
2024/03/21 05:10:38;;;;;;;12.70;5.82;;;;;;;-141.50;100.00;63355.56;5003614;28;20053;-85
2024/03/21 05:13:04;;;;;;;14.95;6.85;;;;;;;-141.50;100.00;63355.56;5017530;28;20041;-86
2024/03/21 05:15:30;;;;;;;14.82;6.47;;;;;;;-141.50;100.00;63355.56;5030993;28;20053;-86
2024/03/21 05:17:56;;;;;;;14.90;7.05;;;;;;;-141.50;100.00;63355.56;5026482;28;20056;-85
2024/03/21 05:20:26;;;;;;;17.00;7.13;;;;;;;-141.50;100.00;63355.56;4998314;28;20052;-87
2024/03/21 05:22:52;;;;;;;15.70;6.78;;;;;;;-141.50;100.00;63355.56;5014929;28;20055;-86
2024/03/21 05:25:20;;;;;;;19.55;6.13;;;;;;;-141.50;100.00;63355.56;5016731;28;20063;-86
2024/03/21 05:27:45;;;;;;;18.73;6.82;;;;;;;-141.50;100.00;63355.56;5026961;28;20049;-86
2024/03/21 05:30:14;;;;;;;14.57;6.57;;;;;;;-141.50;100.00;63355.56;5022380;28;20103;-86
2024/03/21 05:32:40;;;;;;;12.57;6.40;;;;;;;-141.50;100.00;63355.56;5038168;28;20575;-84
2024/03/21 05:35:06;;;;;;;17.73;6.28;;;;;;;-141.50;100.00;63355.56;5016754;28;20048;-84
2024/03/21 05:37:32;;;;;;;14.00;6.55;;;;;;;-141.50;100.00;63355.56;5029624;28;20061;-84
2024/03/21 05:40:01;;;;;;;13.50;6.53;;;;;;;-141.50;100.00;63355.56;5032297;28;20503;-85
2024/03/21 05:42:27;;;;;;;14.57;6.80;;;;;;;-141.50;100.00;63355.56;4968421;28;20056;-86
2024/03/21 05:44:53;;;;;;;12.88;6.20;;;;;;;-141.50;100.00;63355.56;5028190;28;20053;-84
2024/03/21 05:47:23;;;;;;;22.17;7.32;;;;;;;-141.50;100.00;63355.56;5026183;28;20059;-85
2024/03/21 05:49:49;;;;;;;21.85;6.85;;;;;;;-141.50;100.00;63355.56;5005773;28;20049;-84
2024/03/21 05:52:16;;;;;;;16.48;7.00;;;;;;;-141.50;100.00;63355.56;4996225;28;20499;-85
2024/03/21 05:54:47;;;;;;;22.42;6.90;;;;;;;-141.50;100.00;63355.56;5006540;28;20060;-86
2024/03/21 05:57:13;;;;;;;24.45;7.20;;;;;;;-141.50;100.00;63355.56;5019825;28;20051;-83
2024/03/21 05:59:39;;;;;;;16.17;6.20;;;;;;;-141.50;100.00;63355.56;5035575;28;20056;-84
2024/03/21 06:02:05;;;;;;;19.73;6.72;;;;;;;-141.50;100.00;63355.56;5010256;28;20049;-85
2024/03/21 06:04:30;;;;;;;24.30;6.45;;;;;;;-141.50;100.00;63355.56;5022687;28;20056;-85
2024/03/21 06:06:56;;;;;;;19.05;6.88;;;;;;;-141.50;100.00;63355.56;5028304;28;20052;-85
2024/03/21 06:09:24;;;;;;;15.75;6.97;;;;;;;-141.50;100.00;63355.56;5033113;28;20045;-84
2024/03/21 06:11:50;;;;;;;16.17;7.07;;;;;;;-141.50;100.00;63355.56;5019556;28;20069;-83
2024/03/21 06:14:16;;;;;;;16.13;6.88;;;;;;;-141.50;100.00;63355.56;5034735;28;20041;-83
2024/03/21 06:16:42;;;;;;;19.02;7.45;;;;;;;-141.50;100.00;63355.56;5048395;28;20061;-82
2024/03/21 06:19:08;;;;;;;20.42;7.00;;;;;;;-141.50;100.00;63355.56;5041087;28;20044;-83
2024/03/21 06:21:34;;;;;;;15.32;7.18;;;;;;;-141.50;100.00;63355.56;5021063;28;20520;-84
2024/03/21 06:24:00;;;;;;;26.25;7.78;;;;;;;-141.50;100.00;63355.56;5019336;28;20119;-84
2024/03/21 06:26:26;;;;;;;26.45;7.70;;;;;;;-141.50;100.00;63355.56;5030824;28;20388;-84
2024/03/21 06:28:51;;;;;;;23.70;6.57;;;;;;;-141.50;100.00;63355.56;5025459;28;20063;-86
2024/03/21 06:31:17;;;;;;;18.23;7.40;;;;;;;-141.50;100.00;63355.56;5040675;28;20041;-85
2024/03/21 06:33:43;;;;;;;17.83;7.97;;;;;;;-141.50;100.00;63355.56;5010111;28;20049;-86
2024/03/21 06:36:09;;;;;;;18.17;8.15;;;;;;;-141.50;100.00;63355.56;5015906;28;20051;-85
2024/03/21 06:38:35;;;;;;;21.35;8.98;;;;;;;-141.50;100.00;63355.56;5006491;28;20053;-85
2024/03/21 06:41:00;;;;;;;27.08;8.95;;;;;;;-141.50;100.00;63355.56;5003528;28;20953;-86
2024/03/21 06:43:29;;;;;;;27.42;7.97;;;;;;;-141.50;100.00;63355.56;5024976;28;20512;-85
2024/03/21 06:45:56;;;;;;;29.63;9.23;;;;;;;-141.50;100.00;63355.56;4996111;28;20124;-86
2024/03/21 06:48:22;;;;;;;24.33;9.38;;;;;;;-141.50;100.00;63355.56;5028482;28;20132;-86
2024/03/21 06:50:49;;;;;;;21.60;8.57;;;;;;;-141.50;100.00;63355.56;5002082;28;20041;-84
2024/03/21 06:53:17;;;;;;;21.55;9.32;;;;;;;-141.50;100.00;63355.56;5010068;28;20062;-84
2024/03/21 06:55:51;;;;;;;19.15;8.88;;;;;;;-141.50;100.00;63355.56;5022896;28;20077;-85
2024/03/21 06:58:17;;;;;;;21.92;9.30;;;;;;;-141.50;100.00;63355.56;5022457;28;20057;-85
2024/03/21 07:00:43;;;;;;;21.88;10.25;;;;;;;-141.50;100.00;63355.56;5022915;28;20044;-84
2024/03/21 07:03:09;;;;;;;19.83;9.70;;;;;;;-141.50;100.00;63355.56;5026552;28;20045;-85
2024/03/21 07:05:35;;;;;;;22.27;10.85;;;;;;;-141.50;100.00;63355.56;4991182;28;20095;-85
2024/03/21 07:08:01;;;;;;;23.60;10.82;;;;;;;-141.50;100.00;63355.56;5025972;28;20052;-85
2024/03/21 07:10:27;;;;;;;27.35;11.55;;;;;;;-141.50;100.00;63355.56;5033762;28;20045;-85
2024/03/21 07:12:53;;;;;;;20.63;10.40;;;;;;;-141.50;100.00;63355.56;5006326;28;20061;-85
2024/03/21 07:15:18;;;;;;;23.65;10.90;;;;;;;-141.50;100.00;63355.56;5002189;28;20644;-85
2024/03/21 07:17:44;;;;;;;21.88;10.77;;;;;;;-141.50;100.00;63355.56;5032547;28;20132;-84
2024/03/21 07:20:13;;;;;;;23.20;10.80;;;;;;;-141.50;100.00;63355.56;5039239;28;20049;-85
2024/03/21 07:22:39;;;;;;;22.15;10.02;;;;;;;-141.50;100.00;63355.56;5016558;28;20049;-85
2024/03/21 07:25:07;;;;;;;18.52;9.52;;;;;;;-141.50;100.00;63355.56;4999519;28;20049;-85
2024/03/21 07:27:33;;;;;;;23.17;8.48;;;;;;;-141.50;100.00;63355.56;4996820;28;20208;-86
2024/03/21 07:29:59;;;;;;;16.88;8.25;;;;;;;-141.50;100.00;63355.56;5026741;28;20130;-84
2024/03/21 07:32:25;;;;;;;18.85;8.15;;;;;;;-141.50;100.00;63355.56;5026617;28;20049;-84
2024/03/21 07:34:54;;;;;;;18.15;8.20;;;;;;;-141.50;100.00;63355.56;5025609;28;20114;-83
2024/03/21 07:37:20;;;;;;;16.45;7.57;;;;;;;-141.50;100.00;63355.56;5028224;28;20144;-84
2024/03/21 07:39:47;;;;;;;13.20;6.50;;;;;;;-141.50;100.00;63355.56;5021220;28;20044;-84
2024/03/21 07:42:15;;;;;;;14.32;7.15;;;;;;;-141.50;100.00;63355.56;5022403;28;20044;-84
2024/03/21 07:44:41;;;;;;;18.80;7.40;;;;;;;-141.50;100.00;63355.56;5010257;28;20077;-86
2024/03/21 07:47:07;;;;;;;15.48;6.95;;;;;;;-141.50;100.00;63355.56;5007120;28;20071;-84
2024/03/21 07:49:33;;;;;;;13.63;6.70;;;;;;;-141.50;100.00;63355.56;4984139;28;20052;-85
2024/03/21 07:52:01;;;;;;;14.68;7.20;;;;;;;-141.50;100.00;63355.56;5007557;28;20088;-86
2024/03/21 07:54:32;;;;;;;15.20;7.18;;;;;;;-141.50;100.00;63355.56;5024576;28;20755;-84
2024/03/21 07:56:58;;;;;;;17.90;6.85;;;;;;;-141.50;100.00;63355.56;5010484;28;20541;-84
2024/03/21 07:59:24;;;;;;;15.38;6.40;;;;;;;-141.50;100.00;63355.56;5011292;28;20087;-84
2024/03/21 08:01:52;;;;;;;13.50;6.50;;;;;;;-141.50;100.00;63355.56;5025945;28;20056;-83
2024/03/21 08:04:18;;;;;;;12.63;6.63;;;;;;;-141.50;100.00;63355.56;5028384;28;20056;-85
2024/03/21 08:06:46;;;;;;;15.25;6.10;;;;;;;-141.50;100.00;63355.56;5008862;28;20061;-84
2024/03/21 08:09:14;;;;;;;18.33;5.97;;;;;;;-141.50;100.00;63355.56;5023554;28;20063;-84
2024/03/21 08:11:40;;;;;;;13.18;6.45;;;;;;;-141.50;100.00;63355.56;5026415;28;20083;-85
2024/03/21 08:14:07;;;;;;;10.80;6.22;;;;;;;-141.50;100.00;63355.56;5025497;28;20060;-84
2024/03/21 08:16:33;;;;;;;13.02;6.30;;;;;;;-141.50;100.00;63355.56;5032801;28;20071;-84
2024/03/21 08:18:59;;;;;;;13.73;5.90;;;;;;;-141.50;100.00;63355.56;5009359;28;20605;-85
2024/03/21 08:21:24;;;;;;;12.68;6.03;;;;;;;-141.50;100.00;63355.56;5024627;28;20134;-85
2024/03/21 08:23:50;;;;;;;14.23;5.30;;;;;;;-141.50;100.00;63355.56;5022982;28;20045;-83
2024/03/21 08:26:19;;;;;;;11.43;5.72;;;;;;;-141.50;100.00;63355.56;5025949;28;20831;-83
2024/03/21 08:28:45;;;;;;;11.25;5.22;;;;;;;-141.50;100.00;63355.56;5008270;28;20064;-84
2024/03/21 08:31:11;;;;;;;13.75;6.10;;;;;;;-141.50;100.00;63355.56;5027705;28;20108;-84
2024/03/21 08:33:36;;;;;;;11.23;5.50;;;;;;;-141.50;100.00;63355.56;5026108;28;20699;-84
2024/03/21 08:36:02;;;;;;;11.77;5.68;;;;;;;-141.50;100.00;63355.56;5020586;28;20047;-85
2024/03/21 08:38:30;;;;;;;10.77;6.00;;;;;;;-141.50;100.00;63355.56;5025507;28;20113;-84
2024/03/21 08:40:55;;;;;;;12.95;5.90;;;;;;;-141.50;100.00;63355.56;5001554;28;20052;-84
2024/03/21 08:43:22;;;;;;;12.77;6.15;;;;;;;-141.50;100.00;63355.56;5023903;28;20053;-84
2024/03/21 08:45:48;;;;;;;12.82;6.68;;;;;;;-141.50;100.00;63355.56;5003760;28;20057;-85
2024/03/21 08:48:15;;;;;;;16.13;6.53;;;;;;;-141.50;100.00;63355.56;5028694;28;20059;-84
2024/03/21 08:50:45;;;;;;;11.85;5.78;;;;;;;-141.50;100.00;63355.56;5026660;28;20056;-84
2024/03/21 08:53:11;;;;;;;10.80;5.65;;;;;;;-141.50;100.00;63355.56;5015395;28;20069;-84
2024/03/21 08:55:37;;;;;;;12.82;5.60;;;;;;;-141.50;100.00;63355.56;5009475;28;20064;-84
2024/03/21 08:58:04;;;;;;;10.73;5.90;;;;;;;-141.50;100.00;63355.56;5028340;28;20057;-86
2024/03/21 09:00:33;;;;;;;13.65;6.57;;;;;;;-141.50;100.00;63355.56;5023700;28;20899;-84
2024/03/21 09:03:01;;;;;;;12.32;6.40;;;;;;;-141.50;100.00;63355.56;5026559;28;20045;-84
2024/03/21 09:05:27;;;;;;;13.82;6.68;;;;;;;-141.50;100.00;63355.56;5014578;28;20076;-84
2024/03/21 09:07:56;;;;;;;18.50;7.00;;;;;;;-141.50;100.00;63355.56;5014780;28;20155;-85
2024/03/21 09:10:22;;;;;;;13.88;6.43;;;;;;;-141.50;100.00;63355.56;5029627;28;20053;-84
2024/03/21 09:12:48;;;;;;;12.57;6.47;;;;;;;-141.50;100.00;63355.56;5048644;28;20033;-85
2024/03/21 09:15:17;;;;;;;12.15;6.30;;;;;;;-141.50;100.00;63355.56;4999364;28;20130;-86
2024/03/21 09:17:43;;;;;;;13.10;6.38;;;;;;;-141.50;100.00;63355.56;5035944;28;20061;-85
2024/03/21 09:20:09;;;;;;;13.10;6.68;;;;;;;-141.50;100.00;63355.56;5040408;28;20071;-84
2024/03/21 09:22:36;;;;;;;12.95;6.70;;;;;;;-141.50;100.00;63355.56;5013049;28;20084;-84
2024/03/21 09:25:03;;;;;;;14.13;6.53;;;;;;;-141.50;100.00;63355.56;5027351;28;20111;-83
2024/03/21 09:27:29;;;;;;;13.25;6.35;;;;;;;-141.50;100.00;63355.56;5036378;28;20067;-83
2024/03/21 09:29:54;;;;;;;15.77;6.80;;;;;;;-141.50;100.00;63355.56;5054291;28;20080;-83
2024/03/21 09:32:20;;;;;;;14.68;7.18;;;;;;;-141.50;100.00;63355.56;5048216;28;20068;-84
2024/03/21 09:34:47;;;;;;;17.77;6.47;;;;;;;-141.50;100.00;63355.56;5017546;28;20064;-84
2024/03/21 09:37:19;;;;;;;21.17;7.00;;;;;;;-141.50;100.00;63355.56;5038085;28;20125;-84
2024/03/21 09:39:46;;;;;;;15.07;7.15;;;;;;;-141.50;100.00;63355.56;5040029;28;20073;-84
2024/03/21 09:42:16;;;;;;;16.45;6.88;;;;;;;-141.50;100.00;63355.56;5039593;28;20059;-83
2024/03/21 09:44:53;;;;;;;16.80;6.50;;;;;;;-141.50;100.00;63355.56;5013345;28;20714;-84
2024/03/21 09:47:23;;;;;;;14.13;6.53;;;;;;;-141.50;100.00;63355.56;5026257;28;20069;-83
2024/03/21 09:50:05;;;;;;;18.42;7.05;;;;;;;-141.50;100.00;63355.56;5036631;28;20125;-82
2024/03/21 09:52:31;;;;;;;16.45;7.25;;;;;;;-141.50;100.00;63355.56;5014342;28;20065;-83
2024/03/21 09:54:57;;;;;;;17.08;7.20;;;;;;;-141.50;100.00;63355.56;5012960;28;20057;-83
2024/03/21 09:57:23;;;;;;;15.15;6.60;;;;;;;-141.50;100.00;63355.56;5031604;28;20132;-83
2024/03/21 09:59:48;;;;;;;13.93;6.95;;;;;;;-141.50;100.00;63355.56;5023781;28;20068;-85
2024/03/21 10:02:15;;;;;;;15.43;6.85;;;;;;;-141.50;100.00;63355.56;5023506;28;20140;-84
2024/03/21 10:04:46;;;;;;;14.38;6.68;;;;;;;-141.50;100.00;63355.56;4999123;28;20067;-84
2024/03/21 10:07:23;;;;;;;16.75;6.85;;;;;;;-141.50;100.00;63355.56;5010802;28;20110;-83
2024/03/21 10:09:52;;;;;;;17.70;6.95;;;;;;;-141.50;100.00;63355.56;5013558;28;20936;-83
2024/03/21 10:12:18;;;;;;;13.10;6.47;;;;;;;-141.50;100.00;63355.56;5037950;28;20037;-81
2024/03/21 10:14:44;;;;;;;29.40;6.47;;;;;;;-141.50;100.00;63355.56;5025231;28;20110;-82
2024/03/21 10:17:10;;;;;;;20.85;7.45;;;;;;;-141.50;100.00;63355.56;5040037;28;20428;-80
2024/03/21 10:19:36;;;;;;;22.63;7.32;;;;;;;-141.50;100.00;63355.56;5028377;28;20068;-83
2024/03/21 10:22:02;;;;;;;14.85;7.10;;;;;;;-141.50;100.00;63355.56;5009723;28;20064;-83
2024/03/21 10:24:28;;;;;;;14.43;6.50;;;;;;;-141.50;100.00;63355.56;5024288;28;20080;-83
2024/03/21 10:26:54;;;;;;;17.63;7.15;;;;;;;-141.50;100.00;63355.56;5016716;28;20049;-84
2024/03/21 10:29:20;;;;;;;16.98;6.53;;;;;;;-141.50;100.00;63355.56;5011104;28;20451;-81
2024/03/21 10:31:48;;;;;;;14.57;6.93;;;;;;;-141.50;100.00;63355.56;5024813;28;20060;-82
2024/03/21 10:34:15;;;;;;;14.07;6.90;;;;;;;-141.50;100.00;63355.56;5026427;28;20432;-83
2024/03/21 10:36:41;;;;;;;15.52;6.78;;;;;;;-141.50;100.00;63355.56;5025254;28;20060;-81
2024/03/21 10:39:10;;;;;;;19.98;7.70;;;;;;;-141.50;100.00;63355.56;5027346;28;20037;-80
2024/03/21 10:41:40;;;;;;;13.90;7.18;;;;;;;-141.50;100.00;63355.56;5020444;28;20443;-82
2024/03/21 10:44:08;;;;;;;12.90;6.57;;;;;;;-141.50;100.00;63355.56;5026978;28;20082;-82
2024/03/21 10:46:38;;;;;;;12.02;6.28;;;;;;;-141.50;100.00;63355.56;5026784;28;20045;-81
2024/03/21 10:49:05;;;;;;;15.95;7.05;;;;;;;-141.50;100.00;63355.56;4993914;28;20040;-80
2024/03/21 10:51:30;;;;;;;16.23;6.97;;;;;;;-141.50;100.00;63355.56;5002497;28;20040;-81
2024/03/21 10:53:57;;;;;;;14.10;7.32;;;;;;;-141.50;100.00;63355.56;5015877;28;20057;-81
2024/03/21 10:56:36;;;;;;;13.70;6.25;;;;;;;-141.50;100.00;63355.56;5025691;28;20483;-80
2024/03/21 10:59:02;;;;;;;13.73;6.93;;;;;;;-141.50;100.00;63355.56;5045115;28;20047;-81
2024/03/21 11:01:35;;;;;;;16.55;7.13;;;;;;;-141.50;100.00;63355.56;5026657;28;20094;-80